• Join FlightAware (Why Join?)
  • Login
  • US Flag 
09:30AM EDT


 

Airport Tracker/Info


-or-


 

Live Flight TrackerFlight Track Log ✈ N5352K ✈ 27-Aug-2013 ✈ KAPF - KOPF

Flight Track Log - Related Links

Times and Time Zones

All times are in EDT time to prevent confusion due to time zone crossing. See the N5352K flight status page for this flight to view local times or setup timezone preferences in your user account.

Time Position Orientation Groundspeed Altitude Reporting Facility
EDT Latitude Longitude Course Direction KTS MPH feet Rate Location/Type
11:20AM 26.1270 -81.6152 90° East  Level Estimated
11:21AM 26.1214 -81.5888 103° East  Level FlightAware Approximate
11:21AM 26.1947 -81.6283 102° East 67 77 4,700  Level Miami Center
11:22AM 26.1171 -81.5621 101° East  Level Estimated
11:22AM 26.1892 -81.6094 108° East 67 77 5,100  Level Miami Center
11:23AM 26.1121 -81.5355 102° East  Level FlightAware Approximate
11:23AM 26.1836 -81.5861 105° East 67 77 5,300  Level Miami Center
11:24AM 26.1071 -81.5090 102° East  Level FlightAware Approximate
11:24AM 26.1761 -81.5581 107° East 80 92 5,200  Level Miami Center
11:25AM 26.1021 -81.4824 102° East  Level FlightAware Approximate
11:25AM 26.1833 -81.5283 75° East 86 99 5,100  Level Miami Center
11:26AM 26.0971 -81.4558 102° East  Level FlightAware Approximate
11:26AM 26.1781 -81.5003 102° East 86 99 5,200  Level Miami Center
11:27AM 26.0920 -81.4293 102° East  Level FlightAware Approximate
11:27AM 26.1725 -81.4747 104° East 91 105 5,200  Level Miami Center
11:28AM 26.1672 -81.4467 102° East 91 105 5,200  Level Miami Center
11:29AM 26.1594 -81.4211 109° East 91 105 5,200  Level Miami Center
11:30AM 26.1500 -81.3928 110° East 91 105 5,200  Level Miami Center
11:31AM 26.1447 -81.3650 102° East 91 105 5,200  Level Miami Center
11:32AM 26.1392 -81.3369 102° East 91 105 5,200 -60 Level Miami Center
11:33AM 26.1403 -81.3044 88° East 92 106 5,100 -60 Descending Miami Center
11:34AM 26.1389 -81.2767 93° East 92 106 5,100  Level Miami Center
11:35AM 26.1356 -81.2511 98° East 85 98 5,200  Climbing Miami Center
11:36AM 26.1322 -81.2233 98° East 85 98 5,100 -60 Descending Miami Center
11:37AM 26.1289 -81.1956 98° East 90 104 5,100  Level Miami Center
11:38AM 26.1256 -81.1675 98° East 85 98 5,100  Level Miami Center
11:39AM 26.1264 -81.1375 88° East 85 98 5,100  Level Miami Center
11:40AM 26.1189 -81.1094 107° East 85 98 5,100  Level Miami Center
11:41AM 26.1156 -81.0817 98° East 90 104 5,200  Climbing Miami Center
11:42AM 26.1183 -81.0564 83° East 90 104 5,200 -120 Level Miami Center
11:43AM 26.1128 -81.0331 105° East 93 107 5,000 -300 Descending Miami Center
11:44AM 26.0989 -81.0025 117° Southeast 90 104 4,700 -360 Descending Miami Center
11:45AM 26.0892 -80.9767 113° Southeast 95 109 4,300 -420 Descending Miami Center
11:51AM 26.1100 -80.8050 113° Southeast 93 107 2,000 -420 Descending FlightAware
11:51AM 26.1130 -80.7960 70° East 97 112 1,900  Descending FlightAware
11:51AM 26.1140 -80.7890 81° East 93 107 2,000 120 Climbing FlightAware
11:52AM 26.1140 -80.7790 90° East 93 107 2,000  Level FlightAware
11:52AM 26.1130 -80.7770 119° Southeast 94 108 2,000 180 Level FlightAware
11:52AM 26.1130 -80.7630 90° East 95 109 2,100  Climbing FlightAware
11:53AM 26.1120 -80.7520 96° East 99 114 2,000 -180 Descending FlightAware
11:53AM 26.1120 -80.7400 90° East 96 110 2,000  Level FlightAware
11:53AM 26.1130 -80.7310 83° East 95 109 2,000  Level FlightAware
11:54AM 26.1130 -80.7200 90° East 97 112 2,000  Level FlightAware
11:54AM 26.1140 -80.6990 87° East 93 107 2,000  Level FlightAware
11:55AM 26.1160 -80.6880 79° East 97 112 2,000 -180 Level FlightAware
11:55AM 26.1160 -80.6780 90° East 100 115 1,900 -180 Descending FlightAware
11:55AM 26.1150 -80.6690 97° East 98 113 1,900 240 Level FlightAware
11:56AM 26.1150 -80.6660 90° East 97 112 2,000 360 Climbing FlightAware
11:56AM 26.1130 -80.6620 119° Southeast 96 110 2,000 180 Level FlightAware
11:56AM 26.1080 -80.6540 125° Southeast 98 113 2,100  Climbing FlightAware
11:56AM 26.1050 -80.6480 119° Southeast 98 113 2,000 -180 Descending FlightAware
11:57AM 26.1010 -80.6380 114° Southeast 94 108 2,000  Level FlightAware
11:57AM 26.0960 -80.6260 115° Southeast 94 108 2,000  Level FlightAware
11:57AM 26.0920 -80.6140 110° East 96 110 2,000  Level FlightAware
11:58AM 26.0860 -80.6010 117° Southeast 91 105 2,000  Level FlightAware
11:58AM 26.0810 -80.5930 125° Southeast 94 108 2,000 180 Level FlightAware
11:58AM 26.0780 -80.5890 130° Southeast 94 108 2,100  Climbing FlightAware
11:59AM 26.0750 -80.5850 130° Southeast 96 110 2,000 -300 Descending FlightAware
11:59AM 26.0730 -80.5810 119° Southeast 97 112 2,000  Level FlightAware
11:59AM 26.0670 -80.5700 121° Southeast 96 110 2,000 120 Level FlightAware
12:00PM 26.0630 -80.5620 119° Southeast 95 109 2,100 120 Climbing FlightAware
12:00PM 26.0580 -80.5530 122° Southeast 92 106 2,100 -180 Level FlightAware
12:00PM 26.0550 -80.5470 119° Southeast 95 109 2,000 -180 Descending FlightAware
12:01PM 26.0490 -80.5350 119° Southeast 97 112 2,000  Level FlightAware
12:01PM 26.0450 -80.5290 127° Southeast 95 109 2,000  Level FlightAware
12:01PM 26.0390 -80.5180 121° Southeast 96 110 2,000  Level FlightAware
12:02PM 26.0340 -80.5100 125° Southeast 97 112 2,000  Level FlightAware
12:02PM 26.0270 -80.4970 121° Southeast 96 110 2,000  Level FlightAware
12:02PM 26.0210 -80.4860 121° Southeast 101 116 2,000  Level FlightAware
12:03PM 26.0170 -80.4800 127° Southeast 100 115 2,000 -180 Level FlightAware
12:03PM 26.0120 -80.4710 122° Southeast 96 110 1,900  Descending FlightAware
12:03PM 26.0080 -80.4620 116° Southeast 94 108 2,000 120 Climbing FlightAware
12:04PM 26.0040 -80.4560 127° Southeast 90 104 2,000  Level FlightAware
12:04PM 26.0000 -80.4480 119° Southeast 96 110 2,000  Level FlightAware
12:04PM 25.9950 -80.4390 122° Southeast 96 110 2,000  Level FlightAware
12:05PM 25.9890 -80.4280 121° Southeast 97 112 2,000 -180 Level FlightAware
12:05PM 25.9840 -80.4200 125° Southeast 102 117 1,900 -240 Descending FlightAware
12:05PM 25.9810 -80.4150 124° Southeast 103 119 1,900 -180 Level FlightAware
12:06PM 25.9740 -80.4010 119° Southeast 98 113 1,800 -300 Descending FlightAware
12:06PM 25.9660 -80.3880 124° Southeast 99 114 1,600 -240 Descending FlightAware
12:07PM 25.9620 -80.3790 116° Southeast 97 112 1,600 -180 Level FlightAware
12:07PM 25.9570 -80.3710 125° Southeast 100 115 1,500 -300 Descending FlightAware
12:07PM 25.9520 -80.3620 122° Southeast 82 94 1,400 -300 Descending FlightAware
12:08PM 25.9480 -80.3550 122° Southeast 84 97 1,300 -480 Descending FlightAware
12:08PM 25.9440 -80.3470 119° Southeast 76 87 1,100 -420 Descending FlightAware
12:08PM 25.9390 -80.3390 125° Southeast 76 87 1,000 -480 Descending FlightAware
12:09PM 25.9350 -80.3320 122° Southeast 84 97 800 -480 Descending FlightAware
12:09PM 25.9310 -80.3240 119° Southeast 83 96 700 -360 Descending FlightAware
12:09PM 25.9260 -80.3170 128° Southeast 85 98 600 -420 Descending FlightAware
12:10PM 25.9210 -80.3080 122° Southeast 94 108 400 -540 Descending FlightAware
12:10PM 25.9190 -80.3040 119° Southeast 94 108 300 -540 Descending FlightAware
12:10PM 25.9130 -80.2930 121° Southeast 90 104 100  Descending FlightAware
12:10PM 25.9110 -80.2890 119° Southeast 77 89  Descending FlightAware
01:26PM 25.9020 -80.2750 127° Southeast 71 82 300  Climbing FlightAware
01:26PM 25.9000 -80.2680 108° East 74 85 600 720 Climbing FlightAware
01:26PM 25.8990 -80.2600 98° East 70 81 800 720 Climbing FlightAware
01:26PM 25.8970 -80.2590 156° South 71 82 900 540 Climbing FlightAware
01:26PM 25.8960 -80.2580 138° Southeast 73 84 900 660 Level FlightAware
01:26PM 25.8940 -80.2570 156° South 68 78 1,000 480 Climbing FlightAware
01:27PM 25.8920 -80.2570 180° South 79 91 1,000 120 Level FlightAware
01:27PM 25.8850 -80.2680 235° Southwest 92 106 1,100  Climbing FlightAware
01:28PM 25.8850 -80.2810 270° West 102 117 1,000 -180 Descending FlightAware
01:28PM 25.8850 -80.2920 270° West 100 115 1,000  Level FlightAware
01:28PM 25.8860 -80.3010 277° West 88 101 1,000 -180 Level FlightAware
01:29PM 25.8870 -80.3110 276° West 81 93 900 -420 Descending FlightAware
01:29PM 25.8870 -80.3130 270° West 83 96 800 -600 Descending FlightAware
01:29PM 25.8880 -80.3150 299° West 82 94 800  Level FlightAware
01:29PM 25.8900 -80.3160 336° Northwest 89 102 800 -600 Level FlightAware
01:29PM 25.8930 -80.3160 360° North 98 113 700 -240 Descending FlightAware
01:29PM 25.8990 -80.3110 37° Northeast 75 86 700 -300 Level FlightAware
01:30PM 25.8990 -80.3040 90° East 71 82 500 -540 Descending FlightAware
01:30PM 25.8990 -80.2980 90° East 64 74 400 -480 Descending FlightAware
01:30PM 25.8990 -80.2900 90° East 65 75 200 -120 Descending FlightAware
01:32PM 25.9000 -80.2660 90° East 72 83 200 180 Level FlightAware
01:32PM 25.9000 -80.2590 90° East 71 82 500 780 Climbing FlightAware
01:32PM 25.8970 -80.2570 149° Southeast 63 72 600 660 Climbing FlightAware
01:33PM 25.8890 -80.2590 193° South 66 76 900 660 Climbing FlightAware
01:33PM 25.8860 -80.2610 211° Southwest 72 83 1,000 300 Climbing FlightAware
01:33PM 25.8840 -80.2640 233° Southwest 84 97 1,000 -480 Level FlightAware
01:33PM 25.8840 -80.2660 270° West 100 115 900  Descending FlightAware
01:33PM 25.8840 -80.2690 270° West 99 114 1,000 120 Climbing FlightAware
01:34PM 25.8850 -80.2860 274° West 106 122 1,000  Level FlightAware
01:34PM 25.8850 -80.2950 270° West 79 91 1,000 -360 Level FlightAware
01:34PM 25.8860 -80.3040 277° West 88 101 800 -360 Descending FlightAware
01:35PM 25.8900 -80.3080 318° Northwest 97 112 800 -180 Level FlightAware
01:35PM 25.8980 -80.3070 North 72 83 700 -480 Descending FlightAware
01:35PM 25.8990 -80.3060 42° Northeast 77 89 600 -420 Descending FlightAware
01:35PM 25.8990 -80.3020 90° East 73 84 600 -480 Level FlightAware
01:35PM 25.8990 -80.2970 90° East 61 70 400 -120 Descending FlightAware
01:37PM 25.9000 -80.2600 90° East 71 82 400 60 Level FlightAware
01:38PM 25.8980 -80.2570 127° Southeast 65 75 600 720 Climbing FlightAware
01:38PM 25.8900 -80.2590 193° South 77 89 800 600 Climbing FlightAware
01:38PM 25.8870 -80.2600 197° South 73 84 900 720 Climbing FlightAware
01:38PM 25.8850 -80.2620 222° Southwest 79 91 1,000 360 Climbing FlightAware
01:38PM 25.8850 -80.2660 270° West 95 109 1,000 -180 Level FlightAware
01:39PM 25.8850 -80.2810 270° West 105 121 900 -180 Descending FlightAware
01:39PM 25.8860 -80.2910 276° West 89 102 900 -300 Level FlightAware
01:40PM 25.8860 -80.3000 270° West 88 101 700 -720 Descending FlightAware
01:40PM 25.8890 -80.3050 304° West 93 107 500 -600 Descending FlightAware
01:40PM 25.8900 -80.3050 360° North 85 98 500 -240 Level FlightAware
01:40PM 25.8990 -80.3030 11° North 59 68 400 -540 Descending FlightAware
01:40PM 25.8990 -80.2990 90° East 63 72 200 -120 Descending FlightAware
01:42PM 25.9000 -80.2700 84° East 72 83 200 60 Level FlightAware
01:43PM 25.9000 -80.2620 90° East 69 79 400 720 Climbing FlightAware
01:43PM 25.8970 -80.2570 124° Southeast 68 78 600 780 Climbing FlightAware
01:43PM 25.8940 -80.2570 180° South 70 81 700 660 Climbing FlightAware
01:43PM 25.8890 -80.2580 190° South 65 75 900 420 Climbing FlightAware
01:43PM 25.8870 -80.2600 222° Southwest 73 84 900 420 Level FlightAware
01:43PM 25.8860 -80.2620 241° Southwest 82 94 1,000 600 Climbing FlightAware
01:43PM 25.8860 -80.2650 270° West 88 101 1,000  Level FlightAware
01:44PM 25.8850 -80.2780 265° West 101 116 1,000  Level FlightAware
01:44PM 25.8860 -80.2870 277° West 96 110 1,000 -360 Level FlightAware
01:44PM 25.8860 -80.2940 270° West 91 105 800 -540 Descending FlightAware
01:45PM 25.8870 -80.3030 277° West 90 104 700 -240 Descending FlightAware
01:45PM 25.8900 -80.3060 318° Northwest 92 106 700 -480 Level FlightAware
01:45PM 25.8910 -80.3060 360° North 84 97 600 -600 Descending FlightAware
01:45PM 25.8940 -80.3070 343° North 84 97 600 -240 Level FlightAware
01:45PM 25.8990 -80.3020 42° Northeast 67 77 500 -480 Descending FlightAware
01:46PM 25.8990 -80.2920 90° East 60 69 200 -180 Descending FlightAware
01:47PM 25.9000 -80.2680 84° East 75 86 200 120 Level FlightAware
01:48PM 25.9000 -80.2580 90° East 72 83 500 480 Climbing FlightAware
01:48PM 25.8980 -80.2550 127° Southeast 69 79 500 600 Level FlightAware
01:48PM 25.8940 -80.2550 180° South 66 76 700 720 Climbing FlightAware
01:48PM 25.8870 -80.2560 187° South 68 78 900 300 Climbing FlightAware
01:49PM 25.8850 -80.2610 246° West 96 110 900 120 Level FlightAware
01:49PM 25.8850 -80.2730 270° West 98 113 1,000  Climbing FlightAware
01:49PM 25.8850 -80.2820 270° West 101 116 900 -300 Descending FlightAware
01:50PM 25.8860 -80.2960 275° West 89 102 800 -300 Descending FlightAware
01:50PM 25.8860 -80.3030 270° West 86 99 700 -420 Descending FlightAware
01:51PM 25.8950 -80.3080 333° Northwest 80 92 500 -480 Descending FlightAware
01:51PM 25.8980 -80.3050 42° Northeast 77 89 400 -840 Descending FlightAware
01:51PM 25.8990 -80.3040 42° Northeast 71 82 300 -420 Descending FlightAware
01:51PM 25.8990 -80.2950 90° East 63 72 200 -120 Descending FlightAware
01:53PM 25.9000 -80.2690 80° East 72 83 100  Descending FlightAware
01:53PM 25.8990 -80.2610 98° East 67 77 300 540 Climbing FlightAware
01:53PM 25.8980 -80.2560 103° East 69 79 400 900 Climbing FlightAware
01:53PM 25.8970 -80.2550 138° Southeast 60 69 500 660 Climbing FlightAware
01:54PM 25.8960 -80.2550 180° South 70 81 500  Level FlightAware
01:54PM 25.8940 -80.2550 180° South 69 79 500 600 Level FlightAware
01:54PM 25.8850 -80.2580 197° South 80 92 800 660 Climbing FlightAware
01:54PM 25.8840 -80.2590 222° Southwest 88 101 800  Level FlightAware
01:54PM 25.8840 -80.2630 270° West 102 117 800 360 Level FlightAware
01:55PM 25.8850 -80.2730 276° West 93 107 1,000 300 Climbing FlightAware
01:55PM 25.8850 -80.2850 270° West 101 116 1,000  Level FlightAware
01:55PM 25.8850 -80.2930 270° West 90 104 1,000 -180 Level FlightAware
01:56PM 25.8860 -80.3010 278° West 87 100 900 -420 Descending FlightAware
01:56PM 25.8900 -80.3060 312° West 87 100 800 -780 Descending FlightAware
01:56PM 25.8920 -80.3060 360° North 97 112 700 -840 Descending FlightAware
01:56PM 25.8990 -80.3020 27° Northeast 75 86 400 -720 Descending FlightAware
01:57PM 25.8990 -80.2960 90° East 57 66 200  Descending FlightAware
01:59PM 25.8990 -80.2590 94° East 75 86 400 120 Climbing FlightAware
01:59PM 25.8970 -80.2540 114° Southeast 62 71 500 240 Climbing FlightAware
01:59PM 25.8950 -80.2540 180° South 68 78 500 600 Level FlightAware
01:59PM 25.8870 -80.2560 193° South 82 94 800 600 Climbing FlightAware
02:00PM 25.8860 -80.2590 250° West 85 98 800  Level FlightAware
02:00PM 25.8850 -80.2610 241° Southwest 97 112 800 360 Level FlightAware
02:00PM 25.8850 -80.2660 270° West 95 109 900 480 Climbing FlightAware
02:00PM 25.8860 -80.2720 280° West 96 110 1,000 120 Climbing FlightAware
02:00PM 25.8850 -80.2860 265° West 104 120 1,000 -180 Level FlightAware
02:01PM 25.8850 -80.2930 270° West 88 101 900 -480 Descending FlightAware
02:01PM 25.8860 -80.3040 276° West 94 108 700 -420 Descending FlightAware
02:01PM 25.8880 -80.3050 336° Northwest 92 106 700  Level FlightAware
02:01PM 25.8920 -80.3060 347° North 82 94 700 -420 Level FlightAware
02:02PM 25.8980 -80.3020 31° Northeast 74 85 500 -600 Descending FlightAware
02:02PM 25.8990 -80.2990 70° East 71 82 400 -120 Descending FlightAware
02:04PM 25.9000 -80.2660 90° East 70 81 300  Descending FlightAware
02:04PM 25.8960 -80.2560 114° Southeast 76 87 500 420 Climbing FlightAware
02:04PM 25.8950 -80.2560 180° South 81 93 500 960 Level FlightAware
02:04PM 25.8900 -80.2570 190° South 73 84 800 900 Climbing FlightAware
02:05PM 25.8880 -80.2580 204° Southwest 81 93 800  Level FlightAware
02:05PM 25.8870 -80.2600 241° Southwest 87 100 800 300 Level FlightAware
02:05PM 25.8860 -80.2640 254° West 90 104 900 420 Climbing FlightAware
02:05PM 25.8850 -80.2720 262° West 89 102 1,000 180 Climbing FlightAware
02:05PM 25.8850 -80.2780 270° West 96 110 1,000  Level FlightAware
02:06PM 25.8850 -80.2870 270° West 95 109 1,000 -360 Level FlightAware
02:06PM 25.8850 -80.3010 270° West 80 92 700 -540 Descending FlightAware
02:07PM 25.8900 -80.3070 313° West 81 93 500 -540 Descending FlightAware
02:07PM 25.8990 -80.3010 31° Northeast 71 82 300 -240 Descending FlightAware
02:07PM 25.8990 -80.2920 90° East 71 82 300  Level FlightAware
02:09PM 25.9000 -80.2650 90° East 71 82 300 60 Level FlightAware
02:09PM 25.8970 -80.2570 113° Southeast 67 77 500 600 Climbing FlightAware
02:10PM 25.8960 -80.2560 138° Southeast 67 77 600 780 Climbing FlightAware
02:10PM 25.8870 -80.2590 197° South 75 86 900 480 Climbing FlightAware
02:10PM 25.8840 -80.2660 245° Southwest 93 107 1,000  Climbing FlightAware
02:11PM 25.8840 -80.2800 270° West 97 112 900  Descending FlightAware
02:11PM 25.8850 -80.2880 278° West 79 91 1,000 -420 Climbing FlightAware
02:12PM 25.8870 -80.3000 280° West 87 100 600 -840 Descending FlightAware
02:12PM 25.8910 -80.3010 347° North 83 96 500 -420 Descending FlightAware
02:12PM 25.8980 -80.2980 21° North 71 82 400 -660 Descending FlightAware
02:12PM 25.8990 -80.2910 81° East 72 83 100 -120 Descending FlightAware
02:14PM 25.9000 -80.2650 90° East 75 86 200 300 Climbing FlightAware
02:15PM 25.8880 -80.2580 197° South 63 72 900 660 Climbing FlightAware
02:15PM 25.8860 -80.2610 233° Southwest 81 93 900 360 Level FlightAware
02:15PM 25.8860 -80.2630 270° West 90 104 1,000 540 Climbing FlightAware
02:15PM 25.8850 -80.2660 250° West 91 105 1,000 180 Level FlightAware
02:15PM 25.8840 -80.2770 264° West 92 106 1,100 120 Climbing FlightAware
02:16PM 25.8840 -80.2890 270° West 91 105 1,100 -180 Level FlightAware
02:16PM 25.8810 -80.2920 222° Southwest 72 83 1,000 -240 Descending FlightAware
02:16PM 25.8760 -80.2860 133° Southeast 84 97 1,000  Level FlightAware
02:17PM 25.8810 -80.2800 47° Northeast 94 108 1,000  Level FlightAware
02:17PM 25.8830 -80.2800 360° North 99 114 1,000  Level FlightAware
02:17PM 25.8900 -80.2850 327° Northwest 97 112 1,000 -180 Level FlightAware
02:17PM 25.8920 -80.2980 280° West 92 106 900 -180 Descending FlightAware
02:18PM 25.8970 -80.3050 308° West 91 105 900  Level FlightAware
02:18PM 25.9050 -80.3080 341° North 84 97 900 -480 Level FlightAware
02:19PM 25.9160 -80.3030 22° Northeast 76 87 500 -600 Descending FlightAware
02:19PM 25.9160 -80.3010 90° East 63 72 500  Level FlightAware